Time;durP1;ratioP1;P1;durP2;ratioP2;P2;SDS_P1;SDS_P2;PMS_P1;PMS_P2;Temp;Humidity;BMP_temperature;BMP_pressure;BME280_temperature;BME280_humidity;BME280_pressure;Samples;Min_cycle;Max_cycle;Signal;HPM_P1;HPM_P2
2022/12/30 00:01:52;;;;;;;13.95;6.97;;;;;;;;;;4988176;28;20048;-44
2022/12/30 00:04:17;;;;;;;13.80;6.35;;;;;;;;;;4987028;28;20030;-45
2022/12/30 00:06:42;;;;;;;17.15;7.20;;;;;;;;;;4989639;28;20117;-44
2022/12/30 00:09:08;;;;;;;14.48;8.15;;;;;;;;;;4990655;28;20030;-45
2022/12/30 00:11:34;;;;;;;18.73;9.13;;;;;;;;;;4992971;28;20038;-43
2022/12/30 00:34:06;;;;;;;11.98;5.82;;;;;;;;;;4966750;28;20050;-45
2022/12/30 00:36:32;;;;;;;29.42;6.97;;;;;;;;;;4968272;28;20088;-44
2022/12/30 00:38:58;;;;;;;14.13;6.60;;;;;;;;;;4968161;28;20038;-43
2022/12/30 00:44:07;;;;;;;15.77;5.80;;;;;;;;;;4966434;28;20049;-43
2022/12/30 00:46:34;;;;;;;20.80;6.32;;;;;;;;;;4970894;28;20034;-46
2022/12/30 00:57:11;;;;;;;17.17;6.63;;;;;;;;;;4993811;28;20470;-44
2022/12/30 00:59:37;;;;;;;16.08;7.13;;;;;;;;;;4989542;28;20046;-44
2022/12/30 01:02:03;;;;;;;19.05;6.95;;;;;;;;;;4990948;28;20042;-45
2022/12/30 01:04:28;;;;;;;14.65;7.10;;;;;;;;;;4990041;28;20117;-44
2022/12/30 01:06:54;;;;;;;18.75;7.57;;;;;;;;;;4988870;28;20065;-44
2022/12/30 01:09:19;;;;;;;19.65;7.30;;;;;;;;;;4989272;28;20026;-44
2022/12/30 01:12:07;;;;;;;16.25;6.85;;;;;;;;;;4992145;28;20018;-45
2022/12/30 01:14:30;;;;;;;17.48;6.90;;;;;;;;;;4988613;28;20036;-44
2022/12/30 01:16:56;;;;;;;19.48;6.90;;;;;;;;;;4988483;28;20038;-44
2022/12/30 01:19:21;;;;;;;15.70;7.15;;;;;;;;;;4991034;28;20023;-45
2022/12/30 01:21:46;;;;;;;16.42;7.57;;;;;;;;;;4988037;28;20030;-43
2022/12/30 01:24:12;;;;;;;14.27;6.55;;;;;;;;;;4990241;28;20101;-44
2022/12/30 01:26:37;;;;;;;13.20;6.50;;;;;;;;;;4990958;28;20046;-43
2022/12/30 01:29:02;;;;;;;20.80;7.28;;;;;;;;;;4993411;28;20022;-46
2022/12/30 01:31:28;;;;;;;14.25;7.82;;;;;;;;;;4990302;28;20046;-45
2022/12/30 01:33:53;;;;;;;18.38;7.43;;;;;;;;;;4991404;28;20492;-44
2022/12/30 01:36:18;;;;;;;15.88;8.60;;;;;;;;;;4988903;28;20030;-44
2022/12/30 01:38:44;;;;;;;17.25;8.73;;;;;;;;;;4990954;28;20093;-45
2022/12/30 01:41:09;;;;;;;17.17;7.32;;;;;;;;;;4988226;28;20050;-44
2022/12/30 01:43:42;;;;;;;21.40;7.88;;;;;;;;;;4992286;28;20144;-44
2022/12/30 01:46:11;;;;;;;14.15;7.68;;;;;;;;;;4989873;28;20034;-44
2022/12/30 01:48:36;;;;;;;26.17;7.50;;;;;;;;;;4990693;28;20046;-44
2022/12/30 01:51:07;;;;;;;11.93;7.07;;;;;;;;;;4990458;28;20034;-44
2022/12/30 01:53:36;;;;;;;13.70;7.57;;;;;;;;;;4991455;28;20510;-44
2022/12/30 01:56:13;;;;;;;18.90;8.25;;;;;;;;;;4987985;28;20103;-44
2022/12/30 01:58:48;;;;;;;12.88;6.85;;;;;;;;;;4989770;28;20125;-44
2022/12/30 02:01:14;;;;;;;15.40;6.65;;;;;;;;;;4985634;28;20097;-46
2022/12/30 02:03:44;;;;;;;14.60;6.80;;;;;;;;;;4990513;28;20130;-44
2022/12/30 02:06:11;;;;;;;19.45;6.95;;;;;;;;;;4988199;28;20034;-44
2022/12/30 02:08:37;;;;;;;15.15;6.55;;;;;;;;;;4990387;28;20068;-44
2022/12/30 02:11:04;;;;;;;16.67;7.15;;;;;;;;;;4989729;28;20022;-44
2022/12/30 02:13:30;;;;;;;18.27;6.63;;;;;;;;;;4989699;28;20062;-45
2022/12/30 02:16:14;;;;;;;15.90;6.45;;;;;;;;;;4988598;28;20510;-44
2022/12/30 02:18:48;;;;;;;14.63;6.65;;;;;;;;;;4986871;28;20081;-49
2022/12/30 02:22:08;;;;;;;17.10;5.63;;;;;;;;;;4989411;28;20089;-45
2022/12/30 02:25:01;;;;;;;13.52;5.95;;;;;;;;;;4983964;28;20069;-45
2022/12/30 02:27:55;;;;;;;19.52;6.22;;;;;;;;;;4988262;28;20096;-43
2022/12/30 02:30:51;;;;;;;14.02;6.55;;;;;;;;;;4989052;28;20052;-45
2022/12/30 02:34:02;;;;;;;13.75;5.75;;;;;;;;;;4989927;28;20568;-45
2022/12/30 02:36:30;;;;;;;13.93;6.00;;;;;;;;;;4986881;28;20109;-47
2022/12/30 02:39:11;;;;;;;17.10;6.38;;;;;;;;;;4986072;28;20045;-44
2022/12/30 02:44:37;;;;;;;13.38;5.60;;;;;;;;;;4991317;28;20121;-46
2022/12/30 02:47:13;;;;;;;12.98;5.60;;;;;;;;;;4988134;28;20049;-44
2022/12/30 02:49:41;;;;;;;12.30;5.30;;;;;;;;;;4987035;28;20733;-43
2022/12/30 02:52:17;;;;;;;13.82;6.10;;;;;;;;;;4987032;28;20042;-44
2022/12/30 02:54:48;;;;;;;14.25;5.50;;;;;;;;;;4989577;28;20105;-44
2022/12/30 02:57:28;;;;;;;13.52;5.90;;;;;;;;;;4989853;28;20416;-45
2022/12/30 03:06:39;;;;;;;16.40;5.57;;;;;;;;;;4989867;28;20049;-47
2022/12/30 03:11:12;;;;;;;10.20;5.30;;;;;;;;;;4989111;28;20149;-44
2022/12/30 03:12:30;;;;;;;15.65;5.35;;;;;;;;;;4988078;28;20062;-45
2022/12/30 03:15:00;;;;;;;11.45;5.15;;;;;;;;;;4987098;28;20023;-45
2022/12/30 03:17:31;;;;;;;22.35;6.65;;;;;;;;;;4989649;28;20038;-46
2022/12/30 03:20:02;;;;;;;16.45;5.65;;;;;;;;;;4987413;28;20034;-43
2022/12/30 03:28:02;;;;;;;12.65;5.97;;;;;;;;;;4986880;28;20185;-44
2022/12/30 03:30:29;;;;;;;16.17;6.38;;;;;;;;;;4987392;28;20592;-44
2022/12/30 03:32:55;;;;;;;14.15;6.20;;;;;;;;;;4989722;28;20042;-44
2022/12/30 03:35:22;;;;;;;10.40;6.10;;;;;;;;;;4986209;28;20042;-43
2022/12/30 03:37:54;;;;;;;11.95;6.18;;;;;;;;;;4986799;28;20748;-44
2022/12/30 03:40:26;;;;;;;15.90;6.90;;;;;;;;;;4989221;28;20034;-44
2022/12/30 03:42:53;;;;;;;14.15;6.25;;;;;;;;;;4989180;28;20030;-44
2022/12/30 03:45:20;;;;;;;18.33;6.65;;;;;;;;;;4990547;28;20487;-44
2022/12/30 03:47:45;;;;;;;18.08;6.85;;;;;;;;;;4991695;28;20042;-44
2022/12/30 03:50:11;;;;;;;18.05;6.47;;;;;;;;;;4992616;28;20154;-46
2022/12/30 03:52:36;;;;;;;15.32;6.07;;;;;;;;;;4992454;28;20042;-44
2022/12/30 03:55:02;;;;;;;11.70;6.20;;;;;;;;;;4992351;28;20022;-45
2022/12/30 03:57:27;;;;;;;15.50;6.68;;;;;;;;;;4990758;28;20034;-44
2022/12/30 03:59:53;;;;;;;12.43;5.88;;;;;;;;;;4991753;28;20080;-44
2022/12/30 04:02:18;;;;;;;13.15;5.45;;;;;;;;;;4990060;28;20062;-44
2022/12/30 04:04:43;;;;;;;17.25;6.03;;;;;;;;;;4990823;28;20041;-45
2022/12/30 04:07:09;;;;;;;12.15;6.45;;;;;;;;;;4992257;28;20062;-44
2022/12/30 04:09:34;;;;;;;13.38;6.18;;;;;;;;;;4990311;28;20039;-44
2022/12/30 04:12:00;;;;;;;22.70;6.10;;;;;;;;;;4993578;28;20042;-46
2022/12/30 04:14:25;;;;;;;12.02;5.93;;;;;;;;;;4996857;28;20081;-43
2022/12/30 04:16:51;;;;;;;20.95;6.75;;;;;;;;;;4992201;28;20062;-46
2022/12/30 04:19:16;;;;;;;21.50;6.40;;;;;;;;;;4992502;28;20123;-44
2022/12/30 04:21:42;;;;;;;13.85;5.70;;;;;;;;;;4992594;28;20038;-44
2022/12/30 04:24:07;;;;;;;15.77;6.20;;;;;;;;;;4992956;28;20081;-44
2022/12/30 04:26:32;;;;;;;22.42;6.95;;;;;;;;;;4993571;28;20407;-43
2022/12/30 04:28:58;;;;;;;9.70;5.13;;;;;;;;;;4989985;28;20088;-43
2022/12/30 04:31:23;;;;;;;13.32;5.32;;;;;;;;;;4990442;28;20483;-44
2022/12/30 04:33:50;;;;;;;13.95;5.68;;;;;;;;;;4988250;28;20089;-44
2022/12/30 04:36:17;;;;;;;15.43;4.82;;;;;;;;;;4991100;28;20030;-46
2022/12/30 04:38:43;;;;;;;19.27;5.70;;;;;;;;;;4992716;28;20042;-44
2022/12/30 04:41:08;;;;;;;10.90;5.10;;;;;;;;;;4993895;28;20750;-44
2022/12/30 04:43:33;;;;;;;12.30;5.57;;;;;;;;;;4990876;28;20038;-44
2022/12/30 04:45:59;;;;;;;12.82;5.32;;;;;;;;;;4992443;28;20023;-44
2022/12/30 04:48:24;;;;;;;29.63;5.35;;;;;;;;;;4991038;28;20049;-46
2022/12/30 04:50:49;;;;;;;11.77;5.07;;;;;;;;;;4991342;28;20402;-44
2022/12/30 04:53:15;;;;;;;17.00;5.82;;;;;;;;;;4988678;28;20044;-44
2022/12/30 04:55:40;;;;;;;18.75;5.35;;;;;;;;;;4993021;28;20053;-44
2022/12/30 04:58:06;;;;;;;15.80;5.57;;;;;;;;;;4990864;28;20156;-43
2022/12/30 05:00:32;;;;;;;16.65;5.53;;;;;;;;;;4991175;28;20395;-47
2022/12/30 05:02:58;;;;;;;12.07;4.50;;;;;;;;;;4988715;28;20035;-47
2022/12/30 05:05:24;;;;;;;13.13;5.78;;;;;;;;;;4990728;28;20049;-44
2022/12/30 05:07:49;;;;;;;15.20;5.38;;;;;;;;;;4993354;28;20042;-44
2022/12/30 05:10:15;;;;;;;11.93;4.93;;;;;;;;;;4995092;28;20027;-44
2022/12/30 05:12:40;;;;;;;13.82;4.78;;;;;;;;;;4988004;28;20121;-44
2022/12/30 05:15:06;;;;;;;11.80;5.57;;;;;;;;;;4990671;28;20101;-44
2022/12/30 05:17:31;;;;;;;10.50;5.75;;;;;;;;;;4989096;28;20184;-44
2022/12/30 05:19:57;;;;;;;12.73;4.63;;;;;;;;;;4993084;28;20141;-47
2022/12/30 05:22:22;;;;;;;17.75;5.38;;;;;;;;;;4988860;28;20133;-44
2022/12/30 05:27:31;;;;;;;13.30;5.75;;;;;;;;;;4988088;28;20041;-44
2022/12/30 05:29:57;;;;;;;10.73;4.78;;;;;;;;;;4993106;28;20113;-44
2022/12/30 05:32:22;;;;;;;9.80;5.28;;;;;;;;;;4988757;28;20085;-44
2022/12/30 05:34:47;;;;;;;10.80;5.32;;;;;;;;;;4990365;28;20045;-44
2022/12/30 05:37:13;;;;;;;7.78;4.70;;;;;;;;;;4989768;28;20406;-44
2022/12/30 05:39:38;;;;;;;18.42;5.10;;;;;;;;;;4991412;28;20069;-44
2022/12/30 05:42:04;;;;;;;11.55;4.90;;;;;;;;;;4992999;28;20154;-47
2022/12/30 05:44:30;;;;;;;8.50;4.90;;;;;;;;;;4989103;28;20122;-46
2022/12/30 05:46:56;;;;;;;13.50;5.43;;;;;;;;;;4991676;28;20070;-44
2022/12/30 05:49:21;;;;;;;14.15;5.70;;;;;;;;;;4990088;28;20429;-44
2022/12/30 05:51:47;;;;;;;14.63;5.00;;;;;;;;;;4989344;28;20018;-44
2022/12/30 05:54:12;;;;;;;11.20;5.30;;;;;;;;;;4991372;28;20022;-44
2022/12/30 05:56:38;;;;;;;15.75;6.60;;;;;;;;;;4992684;28;20081;-44
2022/12/30 05:59:03;;;;;;;13.68;5.05;;;;;;;;;;4989207;28;20486;-44
2022/12/30 06:01:29;;;;;;;11.77;5.03;;;;;;;;;;4988361;28;20047;-44
2022/12/30 06:03:55;;;;;;;7.55;4.60;;;;;;;;;;4989397;28;20038;-43
2022/12/30 06:06:21;;;;;;;11.13;5.10;;;;;;;;;;4985846;28;20041;-45
2022/12/30 06:08:47;;;;;;;9.98;5.25;;;;;;;;;;4988953;28;20129;-44
2022/12/30 06:11:12;;;;;;;9.05;5.10;;;;;;;;;;4991631;28;20153;-49
2022/12/30 06:13:38;;;;;;;12.88;5.28;;;;;;;;;;4990263;28;20525;-44
2022/12/30 06:16:03;;;;;;;10.65;5.07;;;;;;;;;;4993695;28;20107;-43
2022/12/30 06:18:29;;;;;;;7.30;4.95;;;;;;;;;;4988807;28;20046;-45
2022/12/30 06:20:55;;;;;;;10.93;5.43;;;;;;;;;;4990869;28;20462;-44
2022/12/30 06:23:21;;;;;;;12.80;5.18;;;;;;;;;;4990354;28;20073;-44
2022/12/30 06:25:57;;;;;;;13.52;5.07;;;;;;;;;;4989663;28;20025;-47
2022/12/30 06:28:24;;;;;;;10.77;5.78;;;;;;;;;;4988101;28;20038;-45
2022/12/30 06:30:50;;;;;;;14.80;5.13;;;;;;;;;;4989717;28;20030;-44
2022/12/30 06:33:16;;;;;;;10.80;5.07;;;;;;;;;;4986290;28;20506;-43
2022/12/30 06:35:42;;;;;;;11.77;5.05;;;;;;;;;;4990068;28;20045;-45
2022/12/30 06:38:08;;;;;;;12.20;6.18;;;;;;;;;;4991502;28;21849;-45
2022/12/30 06:40:33;;;;;;;13.18;5.55;;;;;;;;;;4988281;28;20038;-47
2022/12/30 06:42:59;;;;;;;13.05;5.72;;;;;;;;;;4989135;28;20038;-44
2022/12/30 06:45:24;;;;;;;16.50;5.10;;;;;;;;;;4990332;28;20029;-45
2022/12/30 06:47:49;;;;;;;9.50;5.18;;;;;;;;;;4987612;28;20465;-47
2022/12/30 06:50:15;;;;;;;10.80;5.10;;;;;;;;;;4990396;28;20061;-44
2022/12/30 06:52:40;;;;;;;15.23;5.05;;;;;;;;;;4986519;28;20038;-44
2022/12/30 06:55:06;;;;;;;17.75;5.20;;;;;;;;;;4988220;28;20549;-43
2022/12/30 06:57:33;;;;;;;10.93;5.43;;;;;;;;;;4991031;28;20042;-45
2022/12/30 06:59:58;;;;;;;8.13;5.13;;;;;;;;;;4988630;28;20300;-46
2022/12/30 07:02:24;;;;;;;15.30;5.93;;;;;;;;;;4990012;28;20061;-44
2022/12/30 07:04:49;;;;;;;10.95;5.10;;;;;;;;;;4991410;28;20027;-44
2022/12/30 07:07:14;;;;;;;14.50;5.50;;;;;;;;;;4988447;28;20042;-46
2022/12/30 07:09:40;;;;;;;5.57;4.90;;;;;;;;;;4987720;28;20472;-44
2022/12/30 07:12:05;;;;;;;11.63;5.72;;;;;;;;;;4990096;28;20159;-44
2022/12/30 07:14:31;;;;;;;12.05;5.68;;;;;;;;;;4989301;28;20751;-44
2022/12/30 07:16:56;;;;;;;17.08;6.35;;;;;;;;;;4992667;28;20088;-47
2022/12/30 07:19:21;;;;;;;14.85;5.82;;;;;;;;;;4993326;28;20417;-44
2022/12/30 07:21:47;;;;;;;18.20;6.00;;;;;;;;;;4993245;28;20034;-43
2022/12/30 07:24:13;;;;;;;13.88;5.22;;;;;;;;;;4990076;28;20027;-45
2022/12/30 07:26:38;;;;;;;12.82;4.90;;;;;;;;;;4994135;28;20034;-44
2022/12/30 07:29:03;;;;;;;12.57;5.10;;;;;;;;;;4992951;28;20018;-45
2022/12/30 07:31:29;;;;;;;14.07;5.75;;;;;;;;;;4991708;28;20030;-39
2022/12/30 07:33:54;;;;;;;13.75;6.22;;;;;;;;;;4995088;28;20437;-44
2022/12/30 07:36:20;;;;;;;11.75;6.18;;;;;;;;;;4993448;28;20137;-46
2022/12/30 07:38:45;;;;;;;18.48;6.35;;;;;;;;;;4992381;28;20454;-44
2022/12/30 07:41:12;;;;;;;13.88;6.60;;;;;;;;;;4994295;28;20030;-43
2022/12/30 07:43:38;;;;;;;15.23;7.10;;;;;;;;;;4991073;28;20038;-44
2022/12/30 07:46:08;;;;;;;12.60;6.55;;;;;;;;;;4992357;28;20031;-44
2022/12/30 07:48:33;;;;;;;16.85;6.38;;;;;;;;;;4992340;28;20044;-44
2022/12/30 07:50:59;;;;;;;18.33;6.40;;;;;;;;;;4992469;28;20538;-44
2022/12/30 07:53:24;;;;;;;9.43;6.50;;;;;;;;;;4993913;28;20034;-44
2022/12/30 07:55:50;;;;;;;13.50;6.22;;;;;;;;;;4993210;28;20046;-44
2022/12/30 07:58:15;;;;;;;12.18;6.20;;;;;;;;;;4992673;28;20037;-44
2022/12/30 08:00:40;;;;;;;10.02;6.18;;;;;;;;;;4989405;28;20235;-45
2022/12/30 08:03:06;;;;;;;11.43;6.38;;;;;;;;;;4988833;28;20072;-46
2022/12/30 08:05:31;;;;;;;12.55;5.97;;;;;;;;;;4989553;28;20683;-43
2022/12/30 08:07:57;;;;;;;20.33;6.07;;;;;;;;;;4993482;28;20128;-43
2022/12/30 08:10:23;;;;;;;17.25;6.78;;;;;;;;;;4991264;28;20084;-43
2022/12/30 08:12:49;;;;;;;9.15;5.88;;;;;;;;;;4992625;28;20046;-43
2022/12/30 08:15:14;;;;;;;13.27;6.32;;;;;;;;;;4990592;28;20026;-45
2022/12/30 08:17:40;;;;;;;10.77;6.03;;;;;;;;;;4991376;28;20039;-43
2022/12/30 08:20:09;;;;;;;17.17;6.70;;;;;;;;;;4992132;28;20029;-44
2022/12/30 08:22:35;;;;;;;14.45;6.40;;;;;;;;;;4994587;28;20034;-43
2022/12/30 08:25:00;;;;;;;16.23;6.28;;;;;;;;;;4990993;28;20037;-45
2022/12/30 08:27:25;;;;;;;15.52;6.57;;;;;;;;;;4990029;28;20046;-44
2022/12/30 08:29:51;;;;;;;14.95;7.28;;;;;;;;;;4988043;28;20482;-44
2022/12/30 08:32:16;;;;;;;14.55;6.35;;;;;;;;;;4994416;28;20045;-44
2022/12/30 08:34:41;;;;;;;15.45;6.07;;;;;;;;;;4993520;28;20019;-45
2022/12/30 08:37:07;;;;;;;18.38;7.18;;;;;;;;;;4989526;28;20038;-45
2022/12/30 08:39:32;;;;;;;13.40;6.65;;;;;;;;;;4992728;28;20033;-44
2022/12/30 08:41:58;;;;;;;8.75;5.70;;;;;;;;;;4990767;28;20121;-44
2022/12/30 08:44:24;;;;;;;18.23;6.78;;;;;;;;;;4992944;28;20460;-44
2022/12/30 08:46:50;;;;;;;20.10;6.55;;;;;;;;;;4989080;28;20042;-44
2022/12/30 08:49:16;;;;;;;22.17;6.82;;;;;;;;;;4987371;28;20050;-45
2022/12/30 08:51:41;;;;;;;10.63;6.13;;;;;;;;;;4989204;28;20054;-44
2022/12/30 08:54:06;;;;;;;9.15;5.90;;;;;;;;;;4992838;28;20038;-47
2022/12/30 08:56:36;;;;;;;10.00;6.55;;;;;;;;;;4992543;28;20077;-44
2022/12/30 08:59:02;;;;;;;17.55;6.20;;;;;;;;;;4986796;28;20390;-45
2022/12/30 09:01:33;;;;;;;15.45;6.35;;;;;;;;;;4992644;28;20053;-44
2022/12/30 09:04:00;;;;;;;15.20;6.60;;;;;;;;;;4991066;28;20070;-45
2022/12/30 09:06:28;;;;;;;10.75;6.13;;;;;;;;;;4992896;28;20551;-44
2022/12/30 09:08:56;;;;;;;12.35;6.20;;;;;;;;;;4989746;28;20518;-44
2022/12/30 09:11:31;;;;;;;14.45;5.35;;;;;;;;;;4990425;28;20042;-44
2022/12/30 09:13:58;;;;;;;18.98;6.00;;;;;;;;;;4989134;28;20494;-45
2022/12/30 09:16:24;;;;;;;12.05;6.05;;;;;;;;;;4991817;28;20033;-43
2022/12/30 09:18:50;;;;;;;248.00;21.77;;;;;;;;;;4992230;28;20042;-44
2022/12/30 09:21:16;;;;;;;47.25;8.23;;;;;;;;;;4984549;28;20106;-47
2022/12/30 09:23:42;;;;;;;12.68;5.93;;;;;;;;;;4990418;28;20132;-44
2022/12/30 09:26:12;;;;;;;15.50;6.18;;;;;;;;;;4989240;28;20030;-44
2022/12/30 09:28:38;;;;;;;20.48;7.18;;;;;;;;;;4991590;28;20043;-44
2022/12/30 09:31:05;;;;;;;15.85;5.75;;;;;;;;;;4988845;28;20026;-44
2022/12/30 09:33:31;;;;;;;9.43;5.32;;;;;;;;;;4990097;28;20406;-44
2022/12/30 09:35:56;;;;;;;27.05;8.38;;;;;;;;;;4991352;28;20031;-45
2022/12/30 09:38:21;;;;;;;12.38;5.85;;;;;;;;;;4988487;28;20054;-44
2022/12/30 09:41:07;;;;;;;8.63;5.20;;;;;;;;;;4990418;28;20056;-44
2022/12/30 09:43:39;;;;;;;19.65;6.18;;;;;;;;;;4992154;28;20034;-46
2022/12/30 09:46:30;;;;;;;19.80;6.50;;;;;;;;;;4990026;28;20045;-46
2022/12/30 09:49:20;;;;;;;12.95;5.05;;;;;;;;;;4990589;28;20044;-44
2022/12/30 09:51:51;;;;;;;10.10;5.18;;;;;;;;;;4991594;28;20023;-44
2022/12/30 09:54:21;;;;;;;18.52;5.72;;;;;;;;;;4989873;28;20034;-44
2022/12/30 09:56:50;;;;;;;14.50;5.47;;;;;;;;;;4990054;28;20499;-43
2022/12/30 09:59:42;;;;;;;13.85;5.97;;;;;;;;;;4985920;28;20041;-46
2022/12/30 10:02:19;;;;;;;11.60;5.88;;;;;;;;;;4989811;28;20507;-44
2022/12/30 10:04:45;;;;;;;12.85;5.88;;;;;;;;;;4987478;28;20536;-48
2022/12/30 10:07:41;;;;;;;25.42;7.68;;;;;;;;;;4990970;28;20046;-45
2022/12/30 10:10:17;;;;;;;18.45;8.77;;;;;;;;;;4988673;28;20080;-45
2022/12/30 10:13:24;;;;;;;27.73;8.45;;;;;;;;;;4988175;28;20089;-43
2022/12/30 10:15:55;;;;;;;12.15;7.97;;;;;;;;;;4983146;28;20501;-47
2022/12/30 10:18:44;;;;;;;13.68;6.30;;;;;;;;;;4990332;28;20046;-46
2022/12/30 10:21:17;;;;;;;28.02;6.00;;;;;;;;;;4989179;28;20018;-49
2022/12/30 10:23:51;;;;;;;18.92;6.43;;;;;;;;;;4985965;28;20118;-45
2022/12/30 10:26:26;;;;;;;15.70;5.85;;;;;;;;;;4989061;28;20044;-44
2022/12/30 10:29:03;;;;;;;8.90;5.30;;;;;;;;;;4987488;28;20058;-43
2022/12/30 10:31:32;;;;;;;17.05;4.80;;;;;;;;;;4988948;28;20070;-44
2022/12/30 10:34:12;;;;;;;11.93;5.10;;;;;;;;;;4988464;28;20050;-46
2022/12/30 10:37:10;;;;;;;14.23;5.80;;;;;;;;;;4987479;28;20487;-44
2022/12/30 10:39:47;;;;;;;9.43;5.10;;;;;;;;;;4987320;28;20037;-45
2022/12/30 10:42:49;;;;;;;15.85;5.30;;;;;;;;;;4988920;28;20038;-44
2022/12/30 10:45:26;;;;;;;14.25;5.82;;;;;;;;;;4987855;28;20518;-44
2022/12/30 10:48:11;;;;;;;11.52;5.47;;;;;;;;;;4987238;28;20050;-44
2022/12/30 10:50:40;;;;;;;12.38;6.00;;;;;;;;;;4989122;28;20503;-44
2022/12/30 10:53:15;;;;;;;12.30;5.38;;;;;;;;;;4989892;28;20096;-44
2022/12/30 10:55:55;;;;;;;24.23;8.18;;;;;;;;;;4988485;28;20054;-44
2022/12/30 10:58:28;;;;;;;12.57;5.35;;;;;;;;;;4989663;28;20085;-48
2022/12/30 11:00:54;;;;;;;11.43;6.28;;;;;;;;;;4986181;28;20030;-44
2022/12/30 11:03:35;;;;;;;9.82;5.20;;;;;;;;;;4985466;28;20042;-44
2022/12/30 11:06:28;;;;;;;17.80;5.80;;;;;;;;;;4986888;28;20694;-44
2022/12/30 11:09:12;;;;;;;11.40;5.32;;;;;;;;;;4988052;28;20038;-46
2022/12/30 11:14:43;;;;;;;16.80;5.57;;;;;;;;;;4991462;28;20081;-44
2022/12/30 11:17:15;;;;;;;9.27;5.63;;;;;;;;;;4987830;28;20042;-44
2022/12/30 11:19:52;;;;;;;9.07;5.72;;;;;;;;;;4989105;28;20030;-46
2022/12/30 11:22:19;;;;;;;8.23;5.10;;;;;;;;;;4988038;28;20070;-42
2022/12/30 11:25:04;;;;;;;11.52;5.07;;;;;;;;;;4990565;28;20041;-46
2022/12/30 11:27:36;;;;;;;12.75;5.43;;;;;;;;;;4987746;28;20478;-44
2022/12/30 11:30:02;;;;;;;12.98;5.32;;;;;;;;;;4988451;28;20027;-44
2022/12/30 11:32:27;;;;;;;8.75;4.90;;;;;;;;;;4989304;28;20057;-44
2022/12/30 11:34:52;;;;;;;15.60;5.93;;;;;;;;;;4988314;28;20097;-44
2022/12/30 11:37:33;;;;;;;11.52;5.28;;;;;;;;;;4987712;28;20277;-44
2022/12/30 11:40:39;;;;;;;9.45;5.10;;;;;;;;;;4984898;28;20065;-45
2022/12/30 11:43:14;;;;;;;10.38;5.78;;;;;;;;;;4987969;28;20043;-50
2022/12/30 11:45:49;;;;;;;9.80;5.30;;;;;;;;;;4987310;28;20034;-44
2022/12/30 11:48:25;;;;;;;18.48;5.65;;;;;;;;;;4988918;28;20046;-44
2022/12/30 11:50:52;;;;;;;17.10;6.55;;;;;;;;;;4985087;28;20113;-45
2022/12/30 11:53:19;;;;;;;20.70;6.35;;;;;;;;;;4989543;28;20770;-47
2022/12/30 11:55:50;;;;;;;7.10;5.32;;;;;;;;;;4987058;28;20115;-45
2022/12/30 11:58:17;;;;;;;15.60;5.75;;;;;;;;;;4987338;28;20046;-44
2022/12/30 12:00:46;;;;;;;17.42;6.38;;;;;;;;;;4990019;28;20019;-47
2022/12/30 12:03:17;;;;;;;12.27;6.78;;;;;;;;;;4991263;28;20111;-45
2022/12/30 12:05:44;;;;;;;8.45;5.22;;;;;;;;;;4991747;28;20129;-46
2022/12/30 12:08:25;;;;;;;11.35;5.40;;;;;;;;;;4988368;28;20054;-44
2022/12/30 12:10:55;;;;;;;16.15;5.90;;;;;;;;;;4990428;28;20064;-46
2022/12/30 12:13:33;;;;;;;9.25;5.97;;;;;;;;;;4989123;28;20066;-44
2022/12/30 12:15:59;;;;;;;8.80;5.45;;;;;;;;;;4989192;28;20078;-47
2022/12/30 12:18:44;;;;;;;17.63;6.90;;;;;;;;;;4987994;28;20399;-44
2022/12/30 12:21:13;;;;;;;10.68;5.90;;;;;;;;;;4987505;28;20491;-44
2022/12/30 12:23:55;;;;;;;14.60;6.05;;;;;;;;;;4987834;28;20066;-42
2022/12/30 12:26:38;;;;;;;;;;;;;;;;;;4989220;28;20033;-44
2022/12/30 12:29:04;;;;;;;11.65;6.38;;;;;;;;;;4986436;28;19929;-46
2022/12/30 12:31:55;;;;;;;12.70;6.50;;;;;;;;;;4989068;28;20034;-43
2022/12/30 12:34:34;;;;;;;16.77;6.50;;;;;;;;;;4989562;28;20042;-47
2022/12/30 12:37:21;;;;;;;16.67;9.27;;;;;;;;;;4988153;28;20031;-47
2022/12/30 12:40:13;;;;;;;14.40;8.63;;;;;;;;;;4988806;28;20042;-45
2022/12/30 12:42:54;;;;;;;21.13;10.55;;;;;;;;;;4989505;28;20038;-44
2022/12/30 12:45:55;;;;;;;19.90;9.35;;;;;;;;;;4987557;28;20030;-44
2022/12/30 12:49:06;;;;;;;13.02;9.20;;;;;;;;;;4983549;28;20115;-47
2022/12/30 12:51:49;;;;;;;15.55;7.55;;;;;;;;;;4981770;28;20030;-46
2022/12/30 12:54:17;;;;;;;12.07;6.75;;;;;;;;;;4980821;28;20113;-45
2022/12/30 12:56:51;;;;;;;20.33;7.13;;;;;;;;;;4984922;28;20108;-48
2022/12/30 13:00:07;;;;;;;15.98;6.80;;;;;;;;;;4986820;28;20049;-45
2022/12/30 13:02:47;;;;;;;16.45;7.60;;;;;;;;;;4929341;29;20138;-45
2022/12/30 13:05:21;;;;;;;14.10;7.28;;;;;;;;;;4928182;29;20055;-44
2022/12/30 13:07:55;;;;;;;22.48;8.02;;;;;;;;;;4928736;29;20044;-45
2022/12/30 13:10:59;;;;;;;15.70;6.80;;;;;;;;;;4929703;29;20449;-44
2022/12/30 13:13:35;;;;;;;18.23;6.07;;;;;;;;;;4870341;29;20056;-44
2022/12/30 13:16:22;;;;;;;15.43;5.70;;;;;;;;;;4871404;29;20036;-44
2022/12/30 13:18:50;;;;;;;10.63;5.93;;;;;;;;;;4870661;29;20049;-44
2022/12/30 13:21:22;;;;;;;17.42;6.47;;;;;;;;;;4872443;29;20443;-46
2022/12/30 13:23:53;;;;;;;15.13;6.50;;;;;;;;;;4872918;29;20226;-44
2022/12/30 13:26:22;;;;;;;16.27;6.50;;;;;;;;;;4871763;29;20609;-47
2022/12/30 13:28:52;;;;;;;13.02;6.60;;;;;;;;;;4871759;29;20092;-44
2022/12/30 13:31:49;;;;;;;9.52;6.22;;;;;;;;;;4871575;29;20044;-44
2022/12/30 13:34:23;;;;;;;10.77;6.05;;;;;;;;;;4872166;29;20147;-44
2022/12/30 13:37:05;;;;;;;13.55;6.25;;;;;;;;;;4892205;29;20123;-45
2022/12/30 13:39:37;;;;;;;15.65;6.45;;;;;;;;;;4908604;29;20428;-45
2022/12/30 13:42:25;;;;;;;18.33;6.55;;;;;;;;;;4909269;29;20063;-45
2022/12/30 13:44:51;;;;;;;11.02;6.43;;;;;;;;;;4908828;29;20036;-44
2022/12/30 13:47:39;;;;;;;12.32;6.30;;;;;;;;;;4911546;29;20137;-44
2022/12/30 13:50:13;;;;;;;10.73;6.80;;;;;;;;;;4946432;28;20043;-44
2022/12/30 13:52:44;;;;;;;13.60;7.45;;;;;;;;;;4986782;28;20042;-44
2022/12/30 13:55:19;;;;;;;22.27;7.85;;;;;;;;;;4988325;28;20041;-46
2022/12/30 13:57:48;;;;;;;16.08;7.70;;;;;;;;;;4986649;28;20057;-44
2022/12/30 14:00:13;;;;;;;16.13;7.95;;;;;;;;;;4987505;28;20031;-46
2022/12/30 14:02:41;;;;;;;19.95;8.35;;;;;;;;;;4986974;28;20053;-44
2022/12/30 14:05:38;;;;;;;16.13;9.63;;;;;;;;;;4987835;28;20050;-49
2022/12/30 14:08:24;;;;;;;19.95;10.15;;;;;;;;;;4985768;28;20446;-44
2022/12/30 14:11:02;;;;;;;18.90;9.15;;;;;;;;;;4981701;28;20819;-45
2022/12/30 14:13:27;;;;;;;16.75;9.18;;;;;;;;;;4987802;28;20074;-49
2022/12/30 14:15:54;;;;;;;14.23;8.20;;;;;;;;;;4985152;28;20106;-44
2022/12/30 14:18:32;;;;;;;20.55;9.10;;;;;;;;;;4986796;28;20050;-44
2022/12/30 14:21:01;;;;;;;17.05;8.35;;;;;;;;;;4987801;28;20030;-45
2022/12/30 14:23:46;;;;;;;21.73;13.25;;;;;;;;;;4986904;28;20416;-44
2022/12/30 14:26:18;;;;;;;22.42;10.70;;;;;;;;;;4985713;28;20045;-44
2022/12/30 14:28:46;;;;;;;21.83;13.73;;;;;;;;;;4987114;28;20053;-46
2022/12/30 14:31:29;;;;;;;41.00;26.13;;;;;;;;;;4988510;28;20026;-44
2022/12/30 14:33:58;;;;;;;23.67;14.52;;;;;;;;;;4987367;28;20034;-48
2022/12/30 14:36:26;;;;;;;24.35;11.52;;;;;;;;;;4986705;28;20426;-45
2022/12/30 14:38:54;;;;;;;12.00;6.88;;;;;;;;;;4985679;28;20388;-44
2022/12/30 14:41:25;;;;;;;11.80;7.20;;;;;;;;;;4983725;28;20537;-45
2022/12/30 14:43:57;;;;;;;17.08;7.93;;;;;;;;;;4986435;28;20043;-44
2022/12/30 14:46:41;;;;;;;12.95;7.70;;;;;;;;;;4986348;28;20033;-44
2022/12/30 14:49:27;;;;;;;15.50;8.35;;;;;;;;;;4986050;28;20983;-44
2022/12/30 14:52:02;;;;;;;14.57;8.60;;;;;;;;;;4985542;28;20048;-45
2022/12/30 14:54:57;;;;;;;20.40;7.90;;;;;;;;;;4984156;28;20030;-45
2022/12/30 14:57:28;;;;;;;22.60;7.70;;;;;;;;;;4987142;28;20161;-45
2022/12/30 15:00:09;;;;;;;18.25;7.18;;;;;;;;;;4987338;28;20057;-44
2022/12/30 15:02:57;;;;;;;16.95;7.97;;;;;;;;;;4986300;28;20066;-44
2022/12/30 15:05:34;;;;;;;22.45;8.50;;;;;;;;;;4985469;28;20545;-44
2022/12/30 15:08:03;;;;;;;20.83;9.68;;;;;;;;;;4984634;28;20141;-46
2022/12/30 15:10:49;;;;;;;21.77;10.02;;;;;;;;;;4985048;28;20116;-44
2022/12/30 15:13:19;;;;;;;18.98;9.82;;;;;;;;;;4985977;28;20042;-46
2022/12/30 15:15:58;;;;;;;35.33;15.93;;;;;;;;;;4987193;28;20026;-46
2022/12/30 15:18:34;;;;;;;36.45;16.80;;;;;;;;;;4986472;28;20058;-44
2022/12/30 15:21:18;;;;;;;39.95;19.17;;;;;;;;;;4987054;28;20447;-49
2022/12/30 15:24:06;;;;;;;48.80;24.45;;;;;;;;;;4984955;28;20093;-44
2022/12/30 15:26:53;;;;;;;50.90;22.42;;;;;;;;;;4985345;28;20038;-44
2022/12/30 15:29:21;;;;;;;47.05;20.23;;;;;;;;;;4984483;28;20070;-46
2022/12/30 15:31:52;;;;;;;40.38;18.35;;;;;;;;;;4987209;28;20019;-44
2022/12/30 15:34:25;;;;;;;33.67;18.35;;;;;;;;;;4986297;28;20040;-45
2022/12/30 15:36:51;;;;;;;31.83;14.80;;;;;;;;;;4988643;28;20038;-43
2022/12/30 15:39:19;;;;;;;31.17;14.57;;;;;;;;;;4990924;28;20084;-45
2022/12/30 15:41:45;;;;;;;32.47;14.02;;;;;;;;;;4990140;28;20030;-44
2022/12/30 15:44:18;;;;;;;26.83;14.73;;;;;;;;;;4989694;28;20029;-47
2022/12/30 15:47:01;;;;;;;28.13;13.88;;;;;;;;;;4990581;28;20421;-45
2022/12/30 15:49:29;;;;;;;25.45;13.98;;;;;;;;;;4986461;28;20084;-45